sensor_id;sensor_type;location;lat;lon;timestamp;temperature;humidity
2757;DHT22;1386;50.862;6.494;2023-04-24T08:31:55;7.80;99.90
2757;DHT22;1386;50.862;6.494;2023-04-24T08:34:22;7.80;99.90
2757;DHT22;1386;50.862;6.494;2023-04-24T08:36:49;7.80;99.90
2757;DHT22;1386;50.862;6.494;2023-04-24T08:39:17;7.80;99.90
2757;DHT22;1386;50.862;6.494;2023-04-24T08:41:44;7.90;99.90
2757;DHT22;1386;50.862;6.494;2023-04-24T08:44:12;8.00;99.90
2757;DHT22;1386;50.862;6.494;2023-04-24T08:46:42;7.90;99.90
2757;DHT22;1386;50.862;6.494;2023-04-24T08:49:12;8.00;99.90
2757;DHT22;1386;50.862;6.494;2023-04-24T08:51:41;8.00;99.90
2757;DHT22;1386;50.862;6.494;2023-04-24T08:54:08;8.10;99.90
2757;DHT22;1386;50.862;6.494;2023-04-24T08:56:37;8.10;99.90
2757;DHT22;1386;50.862;6.494;2023-04-24T08:59:05;8.10;99.90
2757;DHT22;1386;50.862;6.494;2023-04-24T09:01:33;8.20;99.90
2757;DHT22;1386;50.862;6.494;2023-04-24T09:04:03;8.20;99.90
2757;DHT22;1386;50.862;6.494;2023-04-24T09:06:31;8.20;99.90
2757;DHT22;1386;50.862;6.494;2023-04-24T09:09:00;8.20;99.90
2757;DHT22;1386;50.862;6.494;2023-04-24T09:11:30;8.20;99.90
2757;DHT22;1386;50.862;6.494;2023-04-24T09:13:57;8.20;99.90
2757;DHT22;1386;50.862;6.494;2023-04-24T09:16:25;8.30;99.90
2757;DHT22;1386;50.862;6.494;2023-04-24T09:18:52;8.40;99.90
2757;DHT22;1386;50.862;6.494;2023-04-24T09:21:21;8.40;99.90
2757;DHT22;1386;50.862;6.494;2023-04-24T09:23:57;8.50;99.90
2757;DHT22;1386;50.862;6.494;2023-04-24T09:26:24;8.50;99.90
2757;DHT22;1386;50.862;6.494;2023-04-24T09:28:53;8.60;99.90
2757;DHT22;1386;50.862;6.494;2023-04-24T09:31:20;8.60;99.90
2757;DHT22;1386;50.862;6.494;2023-04-24T09:33:54;8.60;99.90
2757;DHT22;1386;50.862;6.494;2023-04-24T09:36:27;8.60;99.90
2757;DHT22;1386;50.862;6.494;2023-04-24T09:38:58;8.60;99.90
2757;DHT22;1386;50.862;6.494;2023-04-24T09:41:25;8.60;99.90
2757;DHT22;1386;50.862;6.494;2023-04-24T09:43:54;8.60;99.90
2757;DHT22;1386;50.862;6.494;2023-04-24T09:46:28;8.60;99.90
2757;DHT22;1386;50.862;6.494;2023-04-24T09:48:55;8.70;99.90
2757;DHT22;1386;50.862;6.494;2023-04-24T09:51:33;8.80;99.90
2757;DHT22;1386;50.862;6.494;2023-04-24T09:54:03;8.90;99.90
2757;DHT22;1386;50.862;6.494;2023-04-24T09:56:32;9.00;99.90
2757;DHT22;1386;50.862;6.494;2023-04-24T09:59:09;9.10;99.90
2757;DHT22;1386;50.862;6.494;2023-04-24T10:01:35;9.20;99.90
2757;DHT22;1386;50.862;6.494;2023-04-24T10:04:03;9.20;99.90
2757;DHT22;1386;50.862;6.494;2023-04-24T10:06:33;9.20;99.90
2757;DHT22;1386;50.862;6.494;2023-04-24T10:09:02;9.30;99.90
2757;DHT22;1386;50.862;6.494;2023-04-24T10:11:30;9.30;99.90
2757;DHT22;1386;50.862;6.494;2023-04-24T10:13:57;9.30;99.90
2757;DHT22;1386;50.862;6.494;2023-04-24T10:16:25;9.40;99.90
2757;DHT22;1386;50.862;6.494;2023-04-24T10:18:54;9.50;99.90
2757;DHT22;1386;50.862;6.494;2023-04-24T10:21:21;9.60;99.90
2757;DHT22;1386;50.862;6.494;2023-04-24T10:23:49;9.60;99.90
2757;DHT22;1386;50.862;6.494;2023-04-24T10:26:19;9.80;99.90
2757;DHT22;1386;50.862;6.494;2023-04-24T10:28:47;9.90;99.90
2757;DHT22;1386;50.862;6.494;2023-04-24T10:31:15;10.10;99.90
2757;DHT22;1386;50.862;6.494;2023-04-24T10:33:42;10.00;99.90
2757;DHT22;1386;50.862;6.494;2023-04-24T10:36:10;10.00;99.90
2757;DHT22;1386;50.862;6.494;2023-04-24T10:38:40;9.90;99.90
2757;DHT22;1386;50.862;6.494;2023-04-24T10:41:09;9.80;99.90
2757;DHT22;1386;50.862;6.494;2023-04-24T10:43:42;9.70;99.90
2757;DHT22;1386;50.862;6.494;2023-04-24T10:46:09;9.60;99.90
2757;DHT22;1386;50.862;6.494;2023-04-24T10:48:42;9.50;99.90
2757;DHT22;1386;50.862;6.494;2023-04-24T10:51:11;9.40;99.90
2757;DHT22;1386;50.862;6.494;2023-04-24T10:53:38;9.40;99.90
2757;DHT22;1386;50.862;6.494;2023-04-24T10:56:06;9.40;99.90
2757;DHT22;1386;50.862;6.494;2023-04-24T10:58:39;9.40;99.90
2757;DHT22;1386;50.862;6.494;2023-04-24T11:01:08;9.50;99.90
2757;DHT22;1386;50.862;6.494;2023-04-24T11:03:35;9.70;99.90
2757;DHT22;1386;50.862;6.494;2023-04-24T11:06:04;9.70;99.90
2757;DHT22;1386;50.862;6.494;2023-04-24T11:08:37;9.70;99.90
2757;DHT22;1386;50.862;6.494;2023-04-24T11:11:09;9.70;99.90
2757;DHT22;1386;50.862;6.494;2023-04-24T11:14:01;9.80;99.90
2757;DHT22;1386;50.862;6.494;2023-04-24T11:16:32;9.80;99.90
2757;DHT22;1386;50.862;6.494;2023-04-24T11:19:04;9.80;99.90
2757;DHT22;1386;50.862;6.494;2023-04-24T11:21:32;9.90;99.90
2757;DHT22;1386;50.862;6.494;2023-04-24T11:24:26;10.00;99.90
2757;DHT22;1386;50.862;6.494;2023-04-24T11:26:54;10.20;99.90
2757;DHT22;1386;50.862;6.494;2023-04-24T11:29:22;10.40;99.90
2757;DHT22;1386;50.862;6.494;2023-04-24T11:31:51;10.70;99.90
2757;DHT22;1386;50.862;6.494;2023-04-24T11:34:18;11.00;99.90
2757;DHT22;1386;50.862;6.494;2023-04-24T11:36:45;11.20;99.90
2757;DHT22;1386;50.862;6.494;2023-04-24T11:39:13;11.40;99.90
2757;DHT22;1386;50.862;6.494;2023-04-24T11:41:40;11.60;99.90
2757;DHT22;1386;50.862;6.494;2023-04-24T11:44:09;11.60;99.90
2757;DHT22;1386;50.862;6.494;2023-04-24T11:46:36;11.50;99.90
2757;DHT22;1386;50.862;6.494;2023-04-24T11:49:06;11.60;99.90
2757;DHT22;1386;50.862;6.494;2023-04-24T11:51:34;11.50;99.90
2757;DHT22;1386;50.862;6.494;2023-04-24T11:54:01;11.40;99.90
2757;DHT22;1386;50.862;6.494;2023-04-24T11:56:28;11.20;99.90
2757;DHT22;1386;50.862;6.494;2023-04-24T11:58:55;11.00;99.90
2757;DHT22;1386;50.862;6.494;2023-04-24T12:01:22;11.00;99.90
2757;DHT22;1386;50.862;6.494;2023-04-24T12:03:49;11.10;99.90
2757;DHT22;1386;50.862;6.494;2023-04-24T12:06:18;11.40;99.90
2757;DHT22;1386;50.862;6.494;2023-04-24T12:08:46;11.50;99.90
2757;DHT22;1386;50.862;6.494;2023-04-24T12:11:16;11.60;99.90
2757;DHT22;1386;50.862;6.494;2023-04-24T12:13:44;11.70;99.90
2757;DHT22;1386;50.862;6.494;2023-04-24T12:16:12;11.70;99.90
2757;DHT22;1386;50.862;6.494;2023-04-24T12:18:44;11.70;99.90
2757;DHT22;1386;50.862;6.494;2023-04-24T12:21:16;11.60;99.90
2757;DHT22;1386;50.862;6.494;2023-04-24T12:23:44;11.70;99.90
2757;DHT22;1386;50.862;6.494;2023-04-24T12:26:12;11.70;99.90
2757;DHT22;1386;50.862;6.494;2023-04-24T12:28:39;11.60;99.90
2757;DHT22;1386;50.862;6.494;2023-04-24T12:31:06;11.60;99.90
2757;DHT22;1386;50.862;6.494;2023-04-24T12:33:34;11.60;99.90
2757;DHT22;1386;50.862;6.494;2023-04-24T12:36:02;11.60;99.90
2757;DHT22;1386;50.862;6.494;2023-04-24T12:38:29;11.60;99.90
2757;DHT22;1386;50.862;6.494;2023-04-24T12:41:05;11.60;99.90
2757;DHT22;1386;50.862;6.494;2023-04-24T12:43:32;11.50;99.90
2757;DHT22;1386;50.862;6.494;2023-04-24T12:45:59;11.40;99.90
2757;DHT22;1386;50.862;6.494;2023-04-24T12:48:26;11.40;99.90
2757;DHT22;1386;50.862;6.494;2023-04-24T12:50:53;11.40;99.90
2757;DHT22;1386;50.862;6.494;2023-04-24T12:53:20;11.40;99.90
2757;DHT22;1386;50.862;6.494;2023-04-24T12:55:47;11.30;99.90
2757;DHT22;1386;50.862;6.494;2023-04-24T12:58:19;11.30;99.90
2757;DHT22;1386;50.862;6.494;2023-04-24T13:00:47;11.30;99.90
2757;DHT22;1386;50.862;6.494;2023-04-24T13:03:14;11.30;99.90
2757;DHT22;1386;50.862;6.494;2023-04-24T13:05:42;11.50;99.90
2757;DHT22;1386;50.862;6.494;2023-04-24T13:08:09;11.50;99.90
2757;DHT22;1386;50.862;6.494;2023-04-24T13:10:36;11.50;99.90
2757;DHT22;1386;50.862;6.494;2023-04-24T13:13:03;11.50;99.90
2757;DHT22;1386;50.862;6.494;2023-04-24T13:15:31;11.40;99.90
2757;DHT22;1386;50.862;6.494;2023-04-24T13:17:58;11.40;99.90
2757;DHT22;1386;50.862;6.494;2023-04-24T13:20:26;11.50;99.90
2757;DHT22;1386;50.862;6.494;2023-04-24T13:22:53;11.60;99.90
2757;DHT22;1386;50.862;6.494;2023-04-24T13:25:20;11.60;99.90
2757;DHT22;1386;50.862;6.494;2023-04-24T13:27:48;11.60;99.90
2757;DHT22;1386;50.862;6.494;2023-04-24T13:30:15;11.50;99.90
2757;DHT22;1386;50.862;6.494;2023-04-24T13:32:43;11.50;99.90
2757;DHT22;1386;50.862;6.494;2023-04-24T13:35:10;11.40;99.90
2757;DHT22;1386;50.862;6.494;2023-04-24T13:37:37;11.50;99.90
2757;DHT22;1386;50.862;6.494;2023-04-24T13:40:04;11.50;99.90
2757;DHT22;1386;50.862;6.494;2023-04-24T13:42:32;11.50;99.90
2757;DHT22;1386;50.862;6.494;2023-04-24T13:44:59;11.40;99.90
2757;DHT22;1386;50.862;6.494;2023-04-24T13:47:26;11.40;99.90
2757;DHT22;1386;50.862;6.494;2023-04-24T13:49:54;11.50;99.90
2757;DHT22;1386;50.862;6.494;2023-04-24T13:52:21;11.60;99.90
2757;DHT22;1386;50.862;6.494;2023-04-24T13:54:48;11.80;99.90
2757;DHT22;1386;50.862;6.494;2023-04-24T13:57:15;11.80;99.90
2757;DHT22;1386;50.862;6.494;2023-04-24T13:59:42;11.80;99.90
2757;DHT22;1386;50.862;6.494;2023-04-24T14:02:10;11.80;99.90
2757;DHT22;1386;50.862;6.494;2023-04-24T14:04:37;11.70;99.90
2757;DHT22;1386;50.862;6.494;2023-04-24T14:07:06;11.80;99.90
2757;DHT22;1386;50.862;6.494;2023-04-24T14:09:33;11.80;99.90
2757;DHT22;1386;50.862;6.494;2023-04-24T14:12:00;11.90;99.90
2757;DHT22;1386;50.862;6.494;2023-04-24T14:14:28;11.90;99.90
2757;DHT22;1386;50.862;6.494;2023-04-24T14:16:56;11.90;99.90
2757;DHT22;1386;50.862;6.494;2023-04-24T14:19:23;12.00;99.90
2757;DHT22;1386;50.862;6.494;2023-04-24T14:21:50;12.10;99.90
2757;DHT22;1386;50.862;6.494;2023-04-24T14:24:19;12.10;99.90
2757;DHT22;1386;50.862;6.494;2023-04-24T14:26:46;12.20;99.90
2757;DHT22;1386;50.862;6.494;2023-04-24T14:29:12;12.30;99.90
2757;DHT22;1386;50.862;6.494;2023-04-24T17:29:43;11.50;99.90
2757;DHT22;1386;50.862;6.494;2023-04-24T17:32:10;11.40;99.90
2757;DHT22;1386;50.862;6.494;2023-04-24T17:34:37;11.40;99.90
2757;DHT22;1386;50.862;6.494;2023-04-24T17:37:04;11.40;99.90
2757;DHT22;1386;50.862;6.494;2023-04-24T17:39:31;11.30;99.90
2757;DHT22;1386;50.862;6.494;2023-04-24T17:41:58;11.30;99.90
2757;DHT22;1386;50.862;6.494;2023-04-24T17:44:27;11.30;99.90
2757;DHT22;1386;50.862;6.494;2023-04-24T17:46:56;11.30;99.90
2757;DHT22;1386;50.862;6.494;2023-04-24T17:49:23;11.30;99.90
2757;DHT22;1386;50.862;6.494;2023-04-24T17:51:50;11.20;99.90
2757;DHT22;1386;50.862;6.494;2023-04-24T17:54:17;11.20;99.90
2757;DHT22;1386;50.862;6.494;2023-04-24T17:56:44;11.20;99.90
2757;DHT22;1386;50.862;6.494;2023-04-24T17:59:11;11.20;99.90
2757;DHT22;1386;50.862;6.494;2023-04-24T18:01:41;11.20;99.90
2757;DHT22;1386;50.862;6.494;2023-04-24T18:04:10;11.20;99.90
2757;DHT22;1386;50.862;6.494;2023-04-24T18:06:37;11.10;99.90
2757;DHT22;1386;50.862;6.494;2023-04-24T18:09:07;11.10;99.90
2757;DHT22;1386;50.862;6.494;2023-04-24T18:11:34;11.10;99.90
2757;DHT22;1386;50.862;6.494;2023-04-24T18:14:02;11.00;99.90
2757;DHT22;1386;50.862;6.494;2023-04-24T18:16:29;11.00;99.90
2757;DHT22;1386;50.862;6.494;2023-04-24T18:18:58;10.90;99.90
2757;DHT22;1386;50.862;6.494;2023-04-24T18:21:30;10.80;99.90
2757;DHT22;1386;50.862;6.494;2023-04-24T18:23:57;10.60;99.90
2757;DHT22;1386;50.862;6.494;2023-04-24T18:26:25;10.60;99.90
2757;DHT22;1386;50.862;6.494;2023-04-24T18:28:52;10.50;99.90
2757;DHT22;1386;50.862;6.494;2023-04-24T18:35:01;10.90;99.90
2757;DHT22;1386;50.862;6.494;2023-04-24T18:37:37;10.70;99.90
2757;DHT22;1386;50.862;6.494;2023-04-24T18:40:06;10.70;99.90
2757;DHT22;1386;50.862;6.494;2023-04-24T18:42:34;10.50;99.90
2757;DHT22;1386;50.862;6.494;2023-04-24T18:45:28;10.40;99.90
2757;DHT22;1386;50.862;6.494;2023-04-24T18:47:59;10.40;99.90
2757;DHT22;1386;50.862;6.494;2023-04-24T18:50:27;10.30;99.90
2757;DHT22;1386;50.862;6.494;2023-04-24T18:52:57;10.20;99.90
2757;DHT22;1386;50.862;6.494;2023-04-24T18:55:25;10.20;99.90
2757;DHT22;1386;50.862;6.494;2023-04-24T18:57:52;10.20;99.90
2757;DHT22;1386;50.862;6.494;2023-04-24T19:00:19;10.10;99.90
2757;DHT22;1386;50.862;6.494;2023-04-24T19:02:46;10.10;99.90
2757;DHT22;1386;50.862;6.494;2023-04-24T19:05:17;10.10;99.90
2757;DHT22;1386;50.862;6.494;2023-04-24T19:07:44;10.00;99.90
2757;DHT22;1386;50.862;6.494;2023-04-24T19:10:19;10.00;99.90
2757;DHT22;1386;50.862;6.494;2023-04-24T19:12:46;10.00;99.90
2757;DHT22;1386;50.862;6.494;2023-04-24T19:15:14;10.00;99.90
2757;DHT22;1386;50.862;6.494;2023-04-24T19:17:42;10.00;99.90
2757;DHT22;1386;50.862;6.494;2023-04-24T19:20:12;10.00;99.90
2757;DHT22;1386;50.862;6.494;2023-04-24T19:22:41;10.00;99.90
